createdAt,value
2017-08-20T00:01:10.314Z,22.07
2017-08-20T00:03:37.884Z,19.10
2017-08-20T00:06:05.498Z,18.70
2017-08-20T00:08:33.069Z,14.83
2017-08-20T00:11:00.629Z,14.57
2017-08-20T00:13:28.221Z,12.00
2017-08-20T00:15:55.777Z,13.63
2017-08-20T00:18:23.358Z,13.43
2017-08-20T00:20:50.929Z,14.03
2017-08-20T00:23:18.513Z,14.73
2017-08-20T00:25:46.142Z,11.90
2017-08-20T00:28:13.731Z,12.27
2017-08-20T00:30:41.310Z,13.63
2017-08-20T00:33:08.897Z,9.20
2017-08-20T00:35:37.268Z,13.90
2017-08-20T00:38:04.826Z,12.97
2017-08-20T00:40:33.153Z,13.57
2017-08-20T00:43:00.854Z,8.77
2017-08-20T00:45:28.426Z,9.93
2017-08-20T00:47:56.809Z,9.43
2017-08-20T00:50:24.404Z,8.60
2017-08-20T00:52:51.976Z,10.53
2017-08-20T00:55:19.546Z,13.77
2017-08-20T00:57:47.133Z,11.23
2017-08-20T01:00:14.673Z,10.47
2017-08-20T01:02:42.273Z,12.23
2017-08-20T01:05:09.814Z,9.60
2017-08-20T01:07:37.405Z,12.33
2017-08-20T01:10:05.725Z,14.90
2017-08-20T01:12:33.278Z,9.17
2017-08-20T01:15:00.859Z,17.53
2017-08-20T01:17:28.428Z,11.63
2017-08-20T01:19:56.006Z,8.43
2017-08-20T01:22:23.565Z,12.90
2017-08-20T01:24:51.221Z,7.97
2017-08-20T01:27:18.802Z,11.70
2017-08-20T01:29:47.136Z,7.60
2017-08-20T01:32:14.697Z,13.10
2017-08-20T01:34:42.280Z,11.23
2017-08-20T01:37:09.861Z,6.13
2017-08-20T01:39:38.202Z,10.30
2017-08-20T01:42:05.749Z,7.37
2017-08-20T01:44:33.329Z,10.73
2017-08-20T01:47:00.898Z,24.30
2017-08-20T01:49:28.472Z,8.10
2017-08-20T01:51:56.042Z,9.93
2017-08-20T01:54:23.594Z,12.87
2017-08-20T01:56:51.174Z,12.03
2017-08-20T01:59:18.874Z,9.77
2017-08-20T02:01:46.451Z,9.90
2017-08-20T02:04:14.189Z,10.53
2017-08-20T02:06:41.761Z,11.33
2017-08-20T02:09:09.357Z,11.93
2017-08-20T02:11:36.926Z,12.90
2017-08-20T02:14:04.517Z,9.07
2017-08-20T02:16:32.093Z,14.77
2017-08-20T02:18:59.705Z,15.10
2017-08-20T02:21:27.282Z,10.33
2017-08-20T02:23:55.623Z,9.77
2017-08-20T02:26:23.195Z,17.50
2017-08-20T02:28:50.773Z,10.87
2017-08-20T02:31:18.374Z,10.07
2017-08-20T02:33:45.957Z,11.07
2017-08-20T02:36:13.540Z,15.57
2017-08-20T02:38:41.093Z,15.13
2017-08-20T02:41:08.948Z,10.87
2017-08-20T02:43:36.537Z,9.83
2017-08-20T02:46:04.121Z,9.87
2017-08-20T02:48:31.676Z,11.47
2017-08-20T02:51:00.057Z,10.50
2017-08-20T02:53:28.393Z,12.83
2017-08-20T02:55:55.952Z,11.73
2017-08-20T02:58:23.524Z,11.00
2017-08-20T03:00:51.081Z,17.13
2017-08-20T03:03:18.663Z,10.40
2017-08-20T03:05:46.238Z,9.53
2017-08-20T03:08:13.813Z,19.20
2017-08-20T03:10:41.454Z,16.43
2017-08-20T03:13:09.029Z,13.73
2017-08-20T03:15:36.582Z,13.80
2017-08-20T03:18:04.913Z,18.43
2017-08-20T03:20:32.494Z,14.33
2017-08-20T03:23:00.060Z,13.60
2017-08-20T03:25:27.653Z,15.93
2017-08-20T03:27:56.149Z,20.90
2017-08-20T03:30:24.466Z,16.83
2017-08-20T03:32:52.058Z,14.63
2017-08-20T03:35:19.610Z,17.03
2017-08-20T03:37:47.246Z,17.57
2017-08-20T03:40:14.801Z,18.43
2017-08-20T03:42:42.352Z,14.53
2017-08-20T03:45:09.938Z,16.07
2017-08-20T03:47:37.509Z,19.00
2017-08-20T03:50:05.082Z,18.73
2017-08-20T03:52:32.666Z,19.97
2017-08-20T03:55:01.041Z,19.00
2017-08-20T03:57:29.364Z,17.67
2017-08-20T03:59:56.993Z,17.93
2017-08-20T04:02:24.580Z,16.40
2017-08-20T04:04:52.138Z,17.77
2017-08-20T04:07:19.704Z,18.97
2017-08-20T04:09:47.597Z,17.87
2017-08-20T04:12:15.179Z,22.30
2017-08-20T04:14:42.774Z,21.40
2017-08-20T04:17:10.362Z,27.77
2017-08-20T04:19:37.944Z,14.83
2017-08-20T04:22:05.577Z,18.57
2017-08-20T04:24:33.190Z,24.23
2017-08-20T04:27:00.738Z,23.57
2017-08-20T04:29:28.314Z,24.90
2017-08-20T04:31:57.385Z,20.53
2017-08-20T04:34:24.966Z,24.43
2017-08-20T04:36:52.541Z,19.63
2017-08-20T04:39:20.892Z,25.73
2017-08-20T04:41:48.449Z,22.27
2017-08-20T04:44:16.027Z,20.50
2017-08-20T04:46:43.597Z,17.80
2017-08-20T04:49:11.961Z,19.03
2017-08-20T04:51:39.501Z,19.17
2017-08-20T04:54:07.187Z,17.53
2017-08-20T04:56:34.763Z,19.90
2017-08-20T04:59:03.081Z,27.20
2017-08-20T05:01:30.663Z,22.97
2017-08-20T05:03:58.245Z,18.43
2017-08-20T05:06:25.801Z,15.77
2017-08-20T05:08:53.361Z,18.73
2017-08-20T05:11:22.622Z,16.93
2017-08-20T05:13:50.190Z,21.50
2017-08-20T05:16:17.781Z,20.63
2017-08-20T05:18:45.337Z,15.13
2017-08-20T05:21:12.928Z,24.90
2017-08-20T05:23:41.265Z,24.20
2017-08-20T05:26:08.862Z,22.07
2017-08-20T05:28:36.429Z,19.57
2017-08-20T05:31:04.749Z,18.13
2017-08-20T05:33:32.325Z,21.37
2017-08-20T05:35:59.906Z,23.20
2017-08-20T05:38:27.473Z,22.67
2017-08-20T05:40:55.037Z,26.57
2017-08-20T05:43:22.621Z,22.20
2017-08-20T05:45:50.214Z,19.40
2017-08-20T05:48:17.781Z,21.93
2017-08-20T05:50:45.362Z,21.83
2017-08-20T05:53:12.938Z,26.97
2017-08-20T05:55:40.525Z,19.23
2017-08-20T05:58:08.098Z,22.70
2017-08-20T06:00:35.670Z,22.60
2017-08-20T06:03:03.239Z,23.27
2017-08-20T06:05:30.830Z,22.40
2017-08-20T06:07:58.419Z,24.73
2017-08-20T06:10:26.753Z,26.77
2017-08-20T06:12:54.341Z,21.53
2017-08-20T06:15:21.914Z,23.13
2017-08-20T06:17:50.245Z,23.00
2017-08-20T06:20:17.825Z,28.87
2017-08-20T06:22:45.517Z,28.27
2017-08-20T06:25:13.853Z,25.70
2017-08-20T06:27:41.425Z,27.90
2017-08-20T06:30:09.025Z,21.93
2017-08-20T06:32:36.587Z,28.43
2017-08-20T06:35:04.938Z,32.83
2017-08-20T06:37:32.530Z,29.07
2017-08-20T06:40:00.914Z,26.90
2017-08-20T06:42:28.496Z,29.47
2017-08-20T06:44:56.062Z,32.80
2017-08-20T06:47:23.659Z,29.93
2017-08-20T06:49:51.316Z,29.93
2017-08-20T06:52:18.889Z,30.47
2017-08-20T06:54:46.454Z,29.90
2017-08-20T06:57:14.069Z,35.90
2017-08-20T06:59:41.637Z,32.17
2017-08-20T07:02:09.182Z,32.00
2017-08-20T07:04:36.838Z,25.10
2017-08-20T07:07:04.466Z,31.70
2017-08-20T07:09:32.141Z,28.57
2017-08-20T07:11:59.706Z,28.57
2017-08-20T07:14:28.061Z,38.93
2017-08-20T07:16:55.641Z,34.23
2017-08-20T07:19:24.002Z,30.30
2017-08-20T07:21:51.606Z,27.90
2017-08-20T07:24:19.183Z,33.87
2017-08-20T07:26:46.751Z,26.97
2017-08-20T07:29:14.333Z,30.63
2017-08-20T07:31:41.932Z,29.40
2017-08-20T07:34:10.296Z,29.57
2017-08-20T07:36:37.867Z,26.50
2017-08-20T07:39:05.509Z,25.07
2017-08-20T07:41:33.114Z,29.40
2017-08-20T07:44:00.692Z,31.30
2017-08-20T07:46:28.311Z,29.70
2017-08-20T07:48:56.675Z,20.23
2017-08-20T07:51:24.262Z,26.70
2017-08-20T07:53:51.833Z,25.97
2017-08-20T07:56:19.407Z,28.13
2017-08-20T07:58:47.010Z,23.03
2017-08-20T08:01:14.562Z,23.03
2017-08-20T08:03:42.229Z,20.73
2017-08-20T08:06:09.792Z,24.17
2017-08-20T08:08:37.347Z,19.23
2017-08-20T08:11:04.938Z,20.87
2017-08-20T08:13:32.524Z,16.97
2017-08-20T08:16:00.093Z,17.70
2017-08-20T08:18:27.692Z,16.27
2017-08-20T08:20:55.307Z,16.73
2017-08-20T08:23:23.697Z,16.50
2017-08-20T08:25:51.256Z,15.83
2017-08-20T08:28:18.829Z,16.80
2017-08-20T08:30:46.450Z,15.03
2017-08-20T08:33:14.025Z,17.00
2017-08-20T08:35:42.394Z,18.33
2017-08-20T08:38:09.977Z,16.27
2017-08-20T08:40:37.567Z,19.30
2017-08-20T08:43:05.141Z,12.67
2017-08-20T08:45:32.707Z,13.97
2017-08-20T08:48:00.296Z,15.00
2017-08-20T08:50:27.901Z,13.60
2017-08-20T08:52:55.460Z,13.67
2017-08-20T08:55:23.038Z,19.10
2017-08-20T08:57:50.603Z,13.93
2017-08-20T09:00:18.268Z,18.77
2017-08-20T09:02:45.853Z,17.93
2017-08-20T09:05:13.418Z,19.30
2017-08-20T09:07:41.002Z,17.27
2017-08-20T09:10:08.581Z,15.07
2017-08-20T09:12:36.147Z,15.20
2017-08-20T09:15:03.783Z,17.33
2017-08-20T09:17:31.341Z,10.80
2017-08-20T09:19:59.682Z,11.30
2017-08-20T09:22:28.355Z,11.47
2017-08-20T09:24:55.922Z,15.47
2017-08-20T09:27:23.941Z,11.30
2017-08-20T09:29:52.277Z,11.80
2017-08-20T09:32:19.967Z,11.80
2017-08-20T09:34:47.614Z,10.87
2017-08-20T09:37:15.187Z,11.87
2017-08-20T09:39:42.769Z,14.40
2017-08-20T09:42:10.394Z,8.73
2017-08-20T09:44:37.994Z,10.10
2017-08-20T09:47:05.565Z,11.47
2017-08-20T09:49:33.241Z,10.33
2017-08-20T09:52:00.813Z,9.57
2017-08-20T09:54:28.383Z,7.07
2017-08-20T09:56:56.890Z,8.50
2017-08-20T09:59:24.496Z,9.80
2017-08-20T10:01:52.113Z,7.70
2017-08-20T10:04:19.669Z,11.13
2017-08-20T10:06:47.231Z,6.97
2017-08-20T10:09:14.855Z,10.47
2017-08-20T10:11:42.409Z,7.37
2017-08-20T10:14:10.266Z,11.23
2017-08-20T10:16:42.861Z,10.10
2017-08-20T10:19:10.438Z,8.63
2017-08-20T10:21:37.990Z,9.93
2017-08-20T10:24:05.561Z,5.53
2017-08-20T10:26:33.153Z,5.73
2017-08-20T10:29:00.736Z,5.93
2017-08-20T10:31:28.377Z,8.30
2017-08-20T10:33:56.012Z,11.43
2017-08-20T10:36:23.589Z,10.60
2017-08-20T10:38:51.166Z,12.80
2017-08-20T10:41:20.230Z,11.27
2017-08-20T10:43:47.828Z,7.33
2017-08-20T10:46:15.390Z,6.83
2017-08-20T10:48:43.750Z,10.30
2017-08-20T10:51:11.371Z,14.73
2017-08-20T10:53:38.949Z,12.63
2017-08-20T10:56:06.967Z,10.90
2017-08-20T10:58:34.560Z,7.67
2017-08-20T11:01:02.124Z,11.10
2017-08-20T11:03:29.692Z,7.37
2017-08-20T11:05:57.494Z,8.57
2017-08-20T11:08:25.065Z,8.60
2017-08-20T11:10:52.650Z,7.10
2017-08-20T11:13:20.990Z,8.73
2017-08-20T11:15:48.618Z,11.23
2017-08-20T11:18:16.196Z,6.03
2017-08-20T11:20:43.789Z,5.13
2017-08-20T11:23:11.346Z,8.23
2017-08-20T11:25:38.954Z,9.50
2017-08-20T11:28:07.473Z,10.27
2017-08-20T11:30:35.060Z,7.60
2017-08-20T11:33:02.674Z,8.80
2017-08-20T11:35:30.363Z,8.77
2017-08-20T11:37:57.958Z,6.60
2017-08-20T11:40:26.703Z,7.90
2017-08-20T11:42:54.292Z,9.90
2017-08-20T11:45:22.678Z,7.00
2017-08-20T11:47:50.275Z,6.80
2017-08-20T11:50:17.855Z,6.60
2017-08-20T11:52:45.438Z,6.53
2017-08-20T11:55:13.028Z,10.90
2017-08-20T11:57:40.613Z,7.37
2017-08-20T12:00:08.190Z,11.33
2017-08-20T12:02:35.774Z,10.83
2017-08-20T12:05:03.402Z,7.50
2017-08-20T12:07:30.958Z,5.00
2017-08-20T12:09:58.574Z,8.93
2017-08-20T12:12:26.161Z,5.90
2017-08-20T12:14:53.751Z,8.47
2017-08-20T12:17:21.311Z,6.00
2017-08-20T12:19:48.895Z,4.67
2017-08-20T12:22:16.487Z,9.77
2017-08-20T12:24:44.055Z,10.90
2017-08-20T12:27:11.637Z,8.73
2017-08-20T12:29:39.985Z,6.97
2017-08-20T12:32:07.806Z,6.17
2017-08-20T12:34:35.418Z,7.33
2017-08-20T12:37:02.982Z,10.17
2017-08-20T12:39:31.313Z,7.20
2017-08-20T12:41:58.930Z,10.63
2017-08-20T12:44:26.517Z,6.50
2017-08-20T12:46:54.102Z,9.67
2017-08-20T12:49:21.694Z,5.93
2017-08-20T12:54:23.277Z,8.07
2017-08-20T12:56:51.640Z,6.90
2017-08-20T12:59:19.205Z,11.17
2017-08-20T13:01:46.783Z,6.03
2017-08-20T13:04:14.369Z,10.53
2017-08-20T13:06:41.931Z,6.33
2017-08-20T13:09:09.523Z,7.30
2017-08-20T13:11:37.135Z,6.97
2017-08-20T13:14:05.498Z,10.47
2017-08-20T13:16:33.881Z,8.43
2017-08-20T13:19:01.445Z,9.43
2017-08-20T13:21:29.815Z,10.20
2017-08-20T13:23:57.366Z,6.40
2017-08-20T13:26:24.951Z,6.93
2017-08-20T13:28:53.281Z,8.03
2017-08-20T13:31:20.861Z,5.47
2017-08-20T13:33:48.425Z,10.37
2017-08-20T13:36:16.018Z,6.47
2017-08-20T13:38:43.585Z,7.83
2017-08-20T13:41:11.154Z,6.83
2017-08-20T13:43:38.740Z,10.23
2017-08-20T13:46:06.314Z,5.73
2017-08-20T13:48:33.902Z,5.77
2017-08-20T13:51:01.479Z,10.40
2017-08-20T13:53:29.053Z,6.90
2017-08-20T13:55:56.745Z,6.40
2017-08-20T13:58:24.329Z,5.90
2017-08-20T14:00:51.921Z,10.87
2017-08-20T14:03:19.511Z,5.07
2017-08-20T14:05:47.106Z,7.60
2017-08-20T14:08:14.665Z,8.47
2017-08-20T14:10:42.239Z,10.67
2017-08-20T14:13:09.818Z,10.27
2017-08-20T14:15:37.435Z,6.63
2017-08-20T14:18:05.149Z,8.40
2017-08-20T14:20:32.710Z,7.53
2017-08-20T14:23:00.293Z,8.10
2017-08-20T14:25:28.630Z,9.30
2017-08-20T14:27:56.286Z,9.97
2017-08-20T14:30:23.873Z,11.00
2017-08-20T14:32:51.454Z,10.10
2017-08-20T14:35:19.783Z,10.33
2017-08-20T14:37:47.341Z,10.83
2017-08-20T14:40:14.905Z,8.43
2017-08-20T14:42:42.429Z,7.53
2017-08-20T14:45:10.054Z,11.20
2017-08-20T14:47:37.633Z,12.20
2017-08-20T14:50:05.194Z,8.17
2017-08-20T14:52:32.773Z,8.73
2017-08-20T14:55:00.374Z,8.73
2017-08-20T14:57:28.014Z,7.30
2017-08-20T14:59:55.586Z,9.60
2017-08-20T15:02:23.307Z,9.97
2017-08-20T15:04:51.650Z,8.20
2017-08-20T15:07:19.285Z,6.13
2017-08-20T15:09:46.892Z,5.73
2017-08-20T15:12:15.270Z,13.10
2017-08-20T15:14:42.838Z,11.30
2017-08-20T15:17:11.457Z,6.80
2017-08-20T15:19:39.030Z,9.10
2017-08-20T15:22:06.579Z,6.40
2017-08-20T15:24:34.182Z,10.37
2017-08-20T15:27:01.745Z,10.13
2017-08-20T15:29:29.311Z,9.80
2017-08-20T15:31:56.904Z,10.40
2017-08-20T15:34:24.481Z,10.40
2017-08-20T15:36:52.063Z,9.60
2017-08-20T15:39:19.641Z,9.93
2017-08-20T15:41:47.238Z,9.53
2017-08-20T15:44:14.800Z,9.80
2017-08-20T15:46:43.164Z,9.90
2017-08-20T15:49:10.731Z,10.60
2017-08-20T15:51:38.310Z,13.07
2017-08-20T15:54:05.883Z,11.17
2017-08-20T15:56:33.463Z,12.50
2017-08-20T15:59:01.065Z,9.70
2017-08-20T16:01:28.649Z,10.23
2017-08-20T16:03:56.274Z,12.57
2017-08-20T16:06:23.864Z,13.20
2017-08-20T16:08:51.432Z,10.53
2017-08-20T16:11:19.067Z,10.10
2017-08-20T16:13:46.655Z,11.60
2017-08-20T16:16:14.253Z,6.40
2017-08-20T16:18:41.845Z,7.47
2017-08-20T16:21:09.474Z,7.33
2017-08-20T16:23:37.094Z,10.13
2017-08-20T16:26:04.682Z,12.43
2017-08-20T16:28:32.278Z,8.70
2017-08-20T16:30:59.872Z,7.80
2017-08-20T16:33:27.434Z,9.60
2017-08-20T16:35:55.799Z,8.57
2017-08-20T16:38:23.363Z,8.23
2017-08-20T16:40:50.966Z,10.63
2017-08-20T16:43:18.542Z,9.97
2017-08-20T16:45:46.131Z,10.67
2017-08-20T16:48:13.713Z,12.60
2017-08-20T16:50:41.306Z,9.47
2017-08-20T16:53:08.898Z,9.00
2017-08-20T16:55:36.499Z,9.87
2017-08-20T16:58:04.109Z,10.47
2017-08-20T17:00:31.679Z,9.77
2017-08-20T17:02:59.262Z,9.77
2017-08-20T17:05:26.862Z,12.20
2017-08-20T17:07:54.479Z,7.73
2017-08-20T17:10:22.075Z,9.77
2017-08-20T17:12:49.634Z,10.33
2017-08-20T17:15:18.012Z,6.93
2017-08-20T17:17:45.594Z,10.70
2017-08-20T17:20:13.792Z,12.70
2017-08-20T17:22:41.499Z,10.10
2017-08-20T17:25:09.078Z,10.50
2017-08-20T17:27:37.436Z,11.23
2017-08-20T17:30:05.070Z,9.70
2017-08-20T17:32:32.649Z,11.47
2017-08-20T17:35:00.247Z,7.47
2017-08-20T17:37:28.619Z,11.00
2017-08-20T17:39:56.359Z,12.23
2017-08-20T17:42:23.940Z,9.57
2017-08-20T17:44:51.579Z,9.43
2017-08-20T17:47:19.150Z,8.50
2017-08-20T17:49:46.736Z,10.87
2017-08-20T17:52:15.099Z,12.67
2017-08-20T17:54:42.682Z,11.37
2017-08-20T17:57:11.138Z,6.60
2017-08-20T17:59:38.692Z,8.10
2017-08-20T18:02:06.279Z,6.37
2017-08-20T18:04:33.845Z,9.83
2017-08-20T18:07:01.412Z,6.30
2017-08-20T18:09:29.022Z,5.17
2017-08-20T18:11:56.648Z,6.57
2017-08-20T18:14:24.290Z,9.40
2017-08-20T18:16:51.882Z,12.30
2017-08-20T18:19:19.503Z,3.53
2017-08-20T18:21:47.861Z,12.27
2017-08-20T18:24:15.453Z,7.60
2017-08-20T18:26:43.953Z,7.13
2017-08-20T18:29:11.522Z,8.50
2017-08-20T18:31:39.104Z,6.60
2017-08-20T18:34:06.698Z,4.73
2017-08-20T18:36:34.253Z,9.70
2017-08-20T18:39:01.847Z,7.33
2017-08-20T18:41:30.174Z,4.90
2017-08-20T18:43:57.754Z,6.93
2017-08-20T18:46:25.405Z,10.17
2017-08-20T18:48:52.958Z,4.13
2017-08-20T18:51:20.568Z,8.23
2017-08-20T18:53:48.158Z,5.93
2017-08-20T18:56:15.742Z,7.60
2017-08-20T18:58:43.451Z,6.77
2017-08-20T19:01:11.035Z,7.87
2017-08-20T19:03:38.707Z,8.47
2017-08-20T19:06:06.272Z,7.30
2017-08-20T19:08:33.883Z,9.13
2017-08-20T19:11:01.476Z,5.80
2017-08-20T19:13:29.133Z,6.30
2017-08-20T19:15:56.716Z,5.53
2017-08-20T19:18:24.314Z,12.17
2017-08-20T19:20:51.930Z,8.97
2017-08-20T19:23:19.525Z,8.27
2017-08-20T19:25:47.939Z,5.67
2017-08-20T19:28:16.297Z,4.70
2017-08-20T19:30:43.863Z,7.57
2017-08-20T19:33:11.451Z,3.63
2017-08-20T19:35:39.789Z,5.43
2017-08-20T19:38:07.390Z,8.77
2017-08-20T19:40:35.724Z,4.90
2017-08-20T19:43:03.314Z,7.37
2017-08-20T19:45:30.923Z,7.70
2017-08-20T19:47:58.491Z,10.87
2017-08-20T19:50:26.105Z,5.00
2017-08-20T19:52:54.456Z,6.63
2017-08-20T19:55:22.056Z,6.57
2017-08-20T19:57:50.388Z,6.00
2017-08-20T20:00:17.971Z,9.93
2017-08-20T20:02:45.558Z,5.20
2017-08-20T20:05:13.133Z,6.70
2017-08-20T20:07:40.789Z,8.90
2017-08-20T20:10:08.353Z,12.03
2017-08-20T20:12:35.946Z,11.50
2017-08-20T20:15:03.595Z,7.20
2017-08-20T20:17:31.326Z,8.10
2017-08-20T20:19:58.940Z,7.70
2017-08-20T20:22:26.522Z,9.43
2017-08-20T20:24:54.355Z,7.20
2017-08-20T20:27:21.941Z,5.17
2017-08-20T20:29:49.525Z,8.47
2017-08-20T20:32:17.122Z,7.60
2017-08-20T20:34:44.666Z,5.00
2017-08-20T20:37:13.008Z,6.53
2017-08-20T20:39:40.553Z,6.20
2017-08-20T20:42:08.142Z,7.17
2017-08-20T20:44:35.718Z,9.67
2017-08-20T20:47:03.282Z,7.93
2017-08-20T20:49:31.607Z,5.27
2017-08-20T20:51:59.242Z,5.60
2017-08-20T20:54:26.880Z,7.60
2017-08-20T20:56:55.209Z,7.30
2017-08-20T20:59:22.785Z,13.13
2017-08-20T21:01:50.354Z,9.00
2017-08-20T21:04:17.927Z,9.63
2017-08-20T21:06:45.550Z,6.50
2017-08-20T21:09:13.173Z,5.83
2017-08-20T21:11:40.796Z,8.50
2017-08-20T21:14:08.417Z,5.63
2017-08-20T21:16:35.982Z,5.50
2017-08-20T21:19:03.577Z,11.93
2017-08-20T21:21:31.116Z,7.90
2017-08-20T21:23:58.706Z,7.60
2017-08-20T21:26:26.286Z,8.33
2017-08-20T21:28:53.875Z,14.77
2017-08-20T21:31:21.470Z,16.13
2017-08-20T21:33:49.037Z,11.20
2017-08-20T21:36:16.613Z,8.97
2017-08-20T21:38:44.217Z,11.77
2017-08-20T21:41:11.800Z,7.27
2017-08-20T21:43:39.350Z,5.73
2017-08-20T21:46:06.956Z,8.67
2017-08-20T21:48:34.660Z,3.40
2017-08-20T21:51:02.230Z,7.90
2017-08-20T21:53:29.818Z,6.10
2017-08-20T21:55:57.373Z,6.60
2017-08-20T21:58:24.954Z,6.80
2017-08-20T22:00:52.526Z,10.17
2017-08-20T22:03:20.094Z,7.97
2017-08-20T22:05:47.663Z,8.60
2017-08-20T22:08:15.240Z,9.57
2017-08-20T22:10:43.589Z,9.27
2017-08-20T22:13:11.162Z,10.87
2017-08-20T22:15:38.717Z,7.37
2017-08-20T22:18:06.269Z,6.33
2017-08-20T22:20:33.865Z,5.27
2017-08-20T22:23:02.202Z,9.83
2017-08-20T22:25:29.791Z,12.37
2017-08-20T22:27:58.121Z,6.50
2017-08-20T22:30:25.669Z,9.30
2017-08-20T22:32:53.248Z,7.27
2017-08-20T22:35:20.825Z,8.50
2017-08-20T22:37:48.400Z,9.27
2017-08-20T22:40:15.962Z,11.13
2017-08-20T22:42:43.517Z,8.53
2017-08-20T22:45:11.100Z,8.97
2017-08-20T22:47:39.439Z,10.17
2017-08-20T22:50:06.997Z,8.43
2017-08-20T22:52:34.576Z,6.60
2017-08-20T22:55:02.150Z,9.70
2017-08-20T22:57:30.490Z,7.90
2017-08-20T22:59:58.035Z,8.40
2017-08-20T23:02:25.607Z,7.03
2017-08-20T23:04:53.178Z,9.83
2017-08-20T23:07:20.761Z,6.90
2017-08-20T23:09:48.352Z,7.23
2017-08-20T23:12:15.925Z,8.00
2017-08-20T23:14:43.501Z,10.03
2017-08-20T23:17:11.066Z,12.23
2017-08-20T23:19:38.633Z,9.93
2017-08-20T23:22:06.227Z,11.83
2017-08-20T23:24:33.789Z,10.13
2017-08-20T23:27:01.357Z,15.47
2017-08-20T23:29:29.701Z,14.83
2017-08-20T23:31:57.273Z,8.77
2017-08-20T23:34:24.838Z,10.63
2017-08-20T23:36:52.422Z,10.33
2017-08-20T23:39:20.790Z,9.67
2017-08-20T23:41:48.350Z,12.47
2017-08-20T23:44:15.926Z,8.90
2017-08-20T23:46:44.253Z,8.57
2017-08-20T23:49:11.826Z,9.90
2017-08-20T23:51:39.425Z,9.97
2017-08-20T23:54:07.780Z,11.13
2017-08-20T23:56:35.345Z,9.60
2017-08-20T23:59:02.898Z,9.80
